createdAt,value
2022-12-26T00:01:22.349Z,4.01
2022-12-26T00:06:47.180Z,3.98
2022-12-26T00:12:09.449Z,3.99
2022-12-26T00:17:31.670Z,4.00
2022-12-26T00:22:54.879Z,3.98
2022-12-26T00:28:17.462Z,3.99
2022-12-26T00:33:43.080Z,4.03
2022-12-26T00:39:06.593Z,4.06
2022-12-26T00:44:28.851Z,4.06
2022-12-26T00:50:12.539Z,4.05
2022-12-26T00:55:15.673Z,4.03
2022-12-26T01:00:38.537Z,4.03
2022-12-26T01:06:02.845Z,4.07
2022-12-26T01:11:43.398Z,4.06
2022-12-26T01:17:05.976Z,4.09
2022-12-26T01:22:28.538Z,4.13
2022-12-26T01:27:51.997Z,4.15
2022-12-26T01:33:14.441Z,4.15
2022-12-26T01:38:37.682Z,4.16
2022-12-26T01:44:12.723Z,4.21
2022-12-26T01:49:44.445Z,4.25
2022-12-26T01:55:09.791Z,4.28
2022-12-26T02:00:33.223Z,4.29
2022-12-26T02:05:56.431Z,4.34
2022-12-26T02:11:41.746Z,4.37
2022-12-26T02:17:04.801Z,4.38
2022-12-26T02:23:13.513Z,4.38
2022-12-26T02:28:52.796Z,4.38
2022-12-26T02:34:28.884Z,4.40
2022-12-26T02:40:10.932Z,4.41
2022-12-26T02:46:17.730Z,4.43
2022-12-26T02:52:21.115Z,4.43
2022-12-26T02:58:15.139Z,4.43
2022-12-26T03:03:58.454Z,4.43
2022-12-26T03:09:49.513Z,4.45
2022-12-26T03:15:22.307Z,4.49
2022-12-26T03:20:50.811Z,4.52
2022-12-26T03:26:42.165Z,4.54
2022-12-26T03:32:05.197Z,4.55
2022-12-26T03:43:47.895Z,4.73
2022-12-26T03:49:38.579Z,4.67
2022-12-26T03:55:41.718Z,4.82
2022-12-26T04:01:25.119Z,4.73
2022-12-26T04:07:18.936Z,4.73
2022-12-26T04:13:01.987Z,4.74
2022-12-26T04:18:47.591Z,4.79
2022-12-26T04:24:34.009Z,4.80
2022-12-26T04:30:14.383Z,4.79
2022-12-26T04:36:20.539Z,4.81
2022-12-26T04:42:03.665Z,4.81
2022-12-26T04:47:26.492Z,4.79
2022-12-26T04:53:01.355Z,4.83
2022-12-26T04:58:24.676Z,4.83
2022-12-26T05:04:04.750Z,4.84
2022-12-26T05:09:35.585Z,4.87
2022-12-26T05:14:57.860Z,4.91
2022-12-26T05:20:38.562Z,4.88
2022-12-26T05:26:20.656Z,4.91
2022-12-26T05:31:44.175Z,4.94
2022-12-26T05:37:09.908Z,4.96
2022-12-26T05:42:32.109Z,4.96
2022-12-26T05:47:54.321Z,5.01
2022-12-26T05:53:17.415Z,5.02
2022-12-26T05:58:40.599Z,5.04
2022-12-26T06:04:06.141Z,5.06
2022-12-26T06:09:30.933Z,5.07
2022-12-26T06:14:53.279Z,5.13
2022-12-26T06:20:16.280Z,5.13
2022-12-26T06:25:38.934Z,5.14
2022-12-26T06:31:01.262Z,5.16
2022-12-26T06:36:27.923Z,5.38
2022-12-26T06:41:50.116Z,5.46
2022-12-26T06:47:12.364Z,5.51
2022-12-26T06:52:35.182Z,5.56
2022-12-26T06:57:58.439Z,5.59
2022-12-26T07:03:20.817Z,5.63
2022-12-26T07:08:43.040Z,5.75
2022-12-26T07:14:06.226Z,5.94
2022-12-26T07:19:29.463Z,6.13
2022-12-26T07:24:51.672Z,6.17
2022-12-26T07:30:14.809Z,6.34
2022-12-26T07:35:37.160Z,6.40
2022-12-26T07:41:02.770Z,6.46
2022-12-26T07:46:25.182Z,6.50
2022-12-26T07:51:47.527Z,6.54
2022-12-26T07:57:46.344Z,6.56
2022-12-26T08:02:34.191Z,6.58
2022-12-26T08:07:59.216Z,6.59
2022-12-26T08:13:21.514Z,6.65
2022-12-26T08:18:45.391Z,6.67
2022-12-26T08:24:07.660Z,6.72
2022-12-26T08:29:30.014Z,6.79
2022-12-26T08:34:53.149Z,6.82
2022-12-26T08:40:26.806Z,6.95
2022-12-26T08:45:41.126Z,7.05
2022-12-26T08:51:15.109Z,7.20
2022-12-26T08:56:40.148Z,7.37
2022-12-26T09:02:02.689Z,7.57
2022-12-26T09:07:26.578Z,7.69
2022-12-26T09:12:48.960Z,7.81
2022-12-26T09:18:12.762Z,7.91
2022-12-26T09:23:36.267Z,7.98
2022-12-26T09:28:59.657Z,8.06
2022-12-26T09:34:23.376Z,8.09
2022-12-26T09:39:46.208Z,8.15
2022-12-26T09:45:25.341Z,8.22
2022-12-26T09:50:51.506Z,8.33
2022-12-26T10:01:58.930Z,8.49
2022-12-26T10:07:26.247Z,8.43
2022-12-26T10:13:22.606Z,8.45
2022-12-26T10:19:32.685Z,8.58
2022-12-26T10:24:55.799Z,8.71
2022-12-26T10:30:23.357Z,8.74
2022-12-26T10:35:52.205Z,9.06
2022-12-26T10:41:25.524Z,9.58
2022-12-26T10:47:16.044Z,9.88
2022-12-26T10:52:35.586Z,10.43
2022-12-26T10:57:59.772Z,10.45
2022-12-26T11:03:25.941Z,9.90
2022-12-26T11:08:54.940Z,9.68
2022-12-26T11:14:36.355Z,9.50
2022-12-26T11:20:22.786Z,9.39
2022-12-26T11:25:46.777Z,9.37
2022-12-26T11:31:13.088Z,9.39
2022-12-26T11:36:40.711Z,9.34
2022-12-26T11:42:04.695Z,9.41
2022-12-26T11:47:35.996Z,9.47
2022-12-26T11:53:07.164Z,9.42
2022-12-26T11:58:33.676Z,9.37
2022-12-26T12:04:01.237Z,9.38
2022-12-26T12:09:53.741Z,9.27
2022-12-26T12:15:41.729Z,9.20
2022-12-26T12:21:33.168Z,8.98
2022-12-26T12:27:06.261Z,8.78
2022-12-26T12:38:53.152Z,8.62
2022-12-26T12:44:23.422Z,8.44
2022-12-26T12:50:15.343Z,8.37
2022-12-26T12:56:05.340Z,8.32
2022-12-26T13:01:36.147Z,8.33
2022-12-26T13:07:20.222Z,8.39
2022-12-26T13:12:48.926Z,8.41
2022-12-26T13:18:23.191Z,8.41
2022-12-26T13:24:19.644Z,8.46
2022-12-26T13:29:55.170Z,8.44
2022-12-26T13:35:37.069Z,8.48
2022-12-26T13:41:24.712Z,8.56
2022-12-26T13:46:58.465Z,8.60
2022-12-26T13:52:31.207Z,8.70
2022-12-26T13:57:56.727Z,8.64
2022-12-26T14:03:36.271Z,8.71
2022-12-26T14:09:30.694Z,8.72
2022-12-26T14:15:14.552Z,8.83
2022-12-26T14:21:03.527Z,8.82
2022-12-26T14:26:40.193Z,8.78
2022-12-26T14:32:35.784Z,8.71
2022-12-26T14:38:30.095Z,8.71
2022-12-26T14:43:58.101Z,8.78
2022-12-26T14:49:47.498Z,8.84
2022-12-26T14:55:19.691Z,8.73
2022-12-26T15:00:44.905Z,8.70
2022-12-26T15:06:17.980Z,8.64
2022-12-26T15:12:25.880Z,8.74
2022-12-26T15:17:58.929Z,8.67
2022-12-26T15:23:41.397Z,8.67
2022-12-26T15:29:35.063Z,8.60
2022-12-26T15:35:40.253Z,8.54
2022-12-26T15:41:13.331Z,8.51
2022-12-26T15:46:52.465Z,8.57
2022-12-26T15:52:46.480Z,8.62
2022-12-26T15:58:28.414Z,8.55
2022-12-26T16:03:58.604Z,8.47
2022-12-26T16:09:35.602Z,8.47
2022-12-26T16:15:18.587Z,8.44
2022-12-26T16:21:04.901Z,8.41
2022-12-26T16:26:31.234Z,8.41
2022-12-26T16:31:54.340Z,8.37
2022-12-26T16:37:17.933Z,8.29
2022-12-26T16:42:51.610Z,8.39
2022-12-26T16:48:16.028Z,8.39
2022-12-26T16:53:50.875Z,8.40
2022-12-26T16:59:18.476Z,8.40
2022-12-26T17:04:43.053Z,8.37
2022-12-26T17:10:13.766Z,8.39
2022-12-26T17:15:46.188Z,8.43
2022-12-26T17:21:21.728Z,8.43
2022-12-26T17:26:48.693Z,8.44
2022-12-26T17:32:14.731Z,8.42
2022-12-26T17:37:40.588Z,8.45
2022-12-26T17:43:13.068Z,8.37
2022-12-26T17:48:36.161Z,8.38
2022-12-26T17:54:04.099Z,8.29
2022-12-26T17:59:28.029Z,8.25
2022-12-26T18:04:50.618Z,8.26
2022-12-26T18:10:14.236Z,8.24
2022-12-26T18:15:38.755Z,8.28
2022-12-26T18:21:01.382Z,8.29
2022-12-26T18:26:35.677Z,8.29
2022-12-26T18:31:58.806Z,8.25
2022-12-26T18:37:22.739Z,8.24
2022-12-26T18:42:45.028Z,8.18
2022-12-26T18:48:08.236Z,8.12
2022-12-26T18:53:31.477Z,8.04
2022-12-26T18:58:58.072Z,8.01
2022-12-26T19:04:21.202Z,7.98
2022-12-26T19:09:43.803Z,7.95
2022-12-26T19:15:06.582Z,7.91
2022-12-26T19:20:39.081Z,7.86
2022-12-26T19:25:59.747Z,7.86
2022-12-26T19:31:25.889Z,7.87
2022-12-26T19:36:48.973Z,7.84
2022-12-26T19:42:12.215Z,7.84
2022-12-26T19:47:35.535Z,7.85
2022-12-26T19:53:00.189Z,7.89
2022-12-26T19:58:25.058Z,7.91
2022-12-26T20:03:50.154Z,7.92
2022-12-26T20:09:18.904Z,7.96
2022-12-26T20:14:43.940Z,8.01
2022-12-26T20:20:07.898Z,8.06
2022-12-26T20:25:33.144Z,8.03
2022-12-26T20:30:58.184Z,7.95
2022-12-26T20:36:30.274Z,7.88
2022-12-26T20:41:55.350Z,7.81
2022-12-26T20:47:18.333Z,7.74
2022-12-26T20:52:41.164Z,7.79
2022-12-26T20:58:03.918Z,7.80
2022-12-26T21:03:27.227Z,7.78
2022-12-26T21:08:52.241Z,7.76
2022-12-26T21:14:19.261Z,7.75
2022-12-26T21:19:42.828Z,7.86
2022-12-26T21:25:05.119Z,7.83
2022-12-26T21:30:28.157Z,7.85
2022-12-26T21:35:52.867Z,7.85
2022-12-26T21:41:21.652Z,7.96
2022-12-26T21:46:44.785Z,7.89
2022-12-26T21:52:07.516Z,7.80
2022-12-26T21:57:33.133Z,7.76
2022-12-26T22:03:14.467Z,7.73
2022-12-26T22:08:37.012Z,7.70
2022-12-26T22:14:01.241Z,7.63
2022-12-26T22:24:57.376Z,7.55
2022-12-26T22:30:20.091Z,7.34
2022-12-26T22:35:42.493Z,7.47
2022-12-26T22:41:12.495Z,7.38
2022-12-26T22:46:34.889Z,7.19
2022-12-26T22:51:57.189Z,6.99
2022-12-26T22:57:20.635Z,6.78
2022-12-26T23:02:42.890Z,6.64
2022-12-26T23:08:05.561Z,6.45
2022-12-26T23:13:30.761Z,6.29
2022-12-26T23:19:23.219Z,6.05
2022-12-26T23:24:47.895Z,5.54
2022-12-26T23:30:20.091Z,5.17
2022-12-26T23:35:43.262Z,4.81
2022-12-26T23:41:05.503Z,4.54
2022-12-26T23:46:29.200Z,4.43
2022-12-26T23:51:51.603Z,4.31
2022-12-26T23:57:13.923Z,4.19
